createdAt,value
2018-08-09T00:02:05.649Z,87.37
2018-08-09T00:04:34.772Z,88.33
2018-08-09T00:07:04.149Z,89.17
2018-08-09T00:09:33.926Z,90.91
2018-08-09T00:12:03.677Z,89.96
2018-08-09T00:14:32.883Z,89.55
2018-08-09T00:17:02.046Z,90.07
2018-08-09T00:19:30.947Z,89.34
2018-08-09T00:22:00.160Z,89.53
2018-08-09T00:24:29.847Z,89.95
2018-08-09T00:26:59.166Z,91.00
2018-08-09T00:29:28.194Z,90.91
2018-08-09T00:31:57.599Z,90.54
2018-08-09T00:34:27.078Z,91.06
2018-08-09T00:36:56.719Z,91.61
2018-08-09T00:39:26.455Z,92.08
2018-08-09T00:41:55.604Z,91.69
2018-08-09T00:44:24.709Z,91.12
2018-08-09T00:46:53.924Z,92.70
2018-08-09T00:49:23.094Z,91.44
2018-08-09T00:51:52.121Z,91.57
2018-08-09T00:54:21.726Z,91.25
2018-08-09T00:56:51.316Z,89.81
2018-08-09T00:59:20.476Z,89.43
2018-08-09T01:01:49.544Z,89.91
2018-08-09T01:04:19.679Z,89.21
2018-08-09T01:06:50.204Z,89.37
2018-08-09T01:09:19.554Z,88.56
2018-08-09T01:11:49.062Z,88.52
2018-08-09T01:14:18.183Z,88.14
2018-08-09T01:16:47.287Z,88.25
2018-08-09T01:19:16.516Z,88.65
2018-08-09T01:21:45.727Z,88.08
2018-08-09T01:24:15.670Z,90.41
2018-08-09T01:26:48.870Z,90.61
2018-08-09T01:29:19.032Z,90.81
2018-08-09T01:31:49.006Z,91.60
2018-08-09T01:34:18.650Z,90.85
2018-08-09T01:36:47.655Z,90.72
2018-08-09T01:39:16.654Z,90.30
2018-08-09T01:41:56.561Z,90.71
2018-08-09T01:44:25.882Z,90.32
2018-08-09T01:46:54.883Z,90.65
2018-08-09T01:49:24.031Z,90.55
2018-08-09T01:51:53.075Z,89.80
2018-08-09T01:54:22.130Z,89.76
2018-08-09T01:56:51.150Z,89.07
2018-08-09T01:59:20.398Z,89.50
2018-08-09T02:01:49.397Z,89.14
2018-08-09T02:04:18.456Z,88.27
2018-08-09T02:06:47.601Z,87.99
2018-08-09T02:09:21.782Z,89.38
2018-08-09T02:11:50.948Z,88.26
2018-08-09T02:14:20.024Z,88.58
2018-08-09T02:16:49.144Z,89.05
2018-08-09T02:19:19.505Z,89.02
2018-08-09T02:21:49.470Z,90.82
2018-08-09T02:24:18.581Z,90.61
2018-08-09T02:26:47.735Z,89.83
2018-08-09T02:29:16.914Z,90.21
2018-08-09T02:31:45.904Z,90.43
2018-08-09T02:34:15.206Z,89.89
2018-08-09T02:36:44.333Z,91.49
2018-08-09T02:39:13.325Z,90.76
2018-08-09T02:41:42.948Z,91.36
2018-08-09T02:44:11.927Z,92.50
2018-08-09T02:46:41.091Z,92.14
2018-08-09T02:49:11.018Z,91.92
2018-08-09T02:51:40.052Z,92.61
2018-08-09T02:54:09.207Z,91.25
2018-08-09T02:56:38.182Z,92.31
2018-08-09T02:59:07.071Z,90.20
2018-08-09T03:01:36.027Z,89.82
2018-08-09T03:04:05.432Z,89.93
2018-08-09T03:06:34.353Z,89.12
2018-08-09T03:09:03.705Z,88.73
2018-08-09T03:11:33.325Z,88.15
2018-08-09T03:14:02.247Z,87.76
2018-08-09T03:16:31.247Z,87.78
2018-08-09T03:19:00.407Z,88.08
2018-08-09T03:21:29.268Z,87.79
2018-08-09T03:23:58.419Z,87.45
2018-08-09T03:26:27.883Z,87.33
2018-08-09T03:28:56.806Z,87.64
2018-08-09T03:31:25.813Z,87.31
2018-08-09T03:33:55.169Z,87.14
2018-08-09T03:36:24.034Z,87.27
2018-08-09T03:38:53.034Z,87.74
2018-08-09T03:41:22.555Z,88.52
2018-08-09T03:43:51.565Z,88.88
2018-08-09T03:46:20.643Z,89.58
2018-08-09T03:48:49.956Z,89.57
2018-08-09T03:51:18.984Z,89.30
2018-08-09T03:53:48.003Z,90.38
2018-08-09T03:56:17.423Z,89.52
2018-08-09T03:58:46.336Z,89.55
2018-08-09T04:01:15.323Z,90.57
2018-08-09T04:03:45.422Z,89.50
2018-08-09T04:06:14.513Z,89.49
2018-08-09T04:08:43.647Z,88.75
2018-08-09T04:11:13.033Z,88.55
2018-08-09T04:13:42.240Z,89.29
2018-08-09T04:16:11.255Z,88.75
2018-08-09T04:18:41.926Z,88.82
2018-08-09T04:21:10.784Z,87.77
2018-08-09T04:23:39.678Z,85.67
2018-08-09T04:26:08.722Z,82.60
2018-08-09T04:28:37.747Z,81.46
2018-08-09T04:31:06.796Z,81.21
2018-08-09T04:33:35.864Z,79.29
2018-08-09T04:36:04.791Z,78.21
2018-08-09T04:38:33.959Z,77.24
2018-08-09T04:41:03.524Z,76.59
2018-08-09T04:43:32.414Z,76.24
2018-08-09T04:46:01.497Z,75.11
2018-08-09T04:48:31.048Z,73.79
2018-08-09T04:51:00.025Z,72.72
2018-08-09T04:53:29.062Z,71.86
2018-08-09T04:55:58.513Z,71.62
2018-08-09T04:58:27.466Z,71.38
2018-08-09T05:00:56.497Z,72.15
2018-08-09T05:03:25.819Z,72.72
2018-08-09T05:05:55.686Z,74.35
2018-08-09T05:08:24.581Z,73.74
2018-08-09T05:10:54.215Z,72.90
2018-08-09T05:13:23.452Z,72.09
2018-08-09T05:15:52.636Z,72.83
2018-08-09T05:18:22.395Z,72.88
2018-08-09T05:20:51.284Z,73.95
2018-08-09T05:23:21.368Z,74.62
2018-08-09T05:25:51.110Z,76.00
2018-08-09T05:28:19.980Z,75.81
2018-08-09T05:30:49.017Z,77.48
2018-08-09T05:33:18.386Z,76.44
2018-08-09T05:35:48.555Z,77.72
2018-08-09T05:38:17.608Z,77.03
2018-08-09T05:40:46.849Z,76.72
2018-08-09T05:43:15.875Z,75.61
2018-08-09T05:45:44.984Z,76.47
2018-08-09T05:48:14.363Z,75.62
2018-08-09T05:50:43.306Z,74.07
2018-08-09T05:53:12.196Z,74.62
2018-08-09T05:55:41.346Z,74.57
2018-08-09T05:58:10.233Z,73.93
2018-08-09T06:00:39.348Z,72.24
2018-08-09T06:03:08.299Z,71.68
2018-08-09T06:05:37.388Z,71.30
2018-08-09T06:08:06.320Z,71.23
2018-08-09T06:10:35.601Z,71.19
2018-08-09T06:13:04.484Z,71.96
2018-08-09T06:15:33.454Z,72.00
2018-08-09T06:18:02.781Z,72.69
2018-08-09T06:20:31.752Z,72.05
2018-08-09T06:23:00.667Z,72.15
2018-08-09T06:25:30.343Z,72.42
2018-08-09T06:27:59.382Z,72.63
2018-08-09T06:30:28.375Z,72.67
2018-08-09T06:32:57.369Z,72.67
2018-08-09T06:35:26.433Z,72.71
2018-08-09T06:37:55.522Z,73.39
2018-08-09T06:40:24.929Z,72.82
2018-08-09T06:42:53.868Z,71.83
2018-08-09T06:45:22.785Z,72.32
2018-08-09T06:47:51.863Z,71.52
2018-08-09T06:50:20.749Z,71.48
2018-08-09T06:52:49.719Z,71.72
2018-08-09T06:55:19.113Z,72.86
2018-08-09T06:57:48.117Z,71.60
2018-08-09T07:00:17.053Z,71.58
2018-08-09T07:02:46.556Z,70.27
2018-08-09T07:05:15.419Z,70.55
2018-08-09T07:07:44.402Z,71.40
2018-08-09T07:10:13.856Z,71.14
2018-08-09T07:12:42.805Z,70.21
2018-08-09T07:15:13.180Z,70.31
2018-08-09T07:17:42.255Z,70.66
2018-08-09T07:20:11.519Z,69.65
2018-08-09T07:22:41.587Z,68.69
2018-08-09T07:25:10.619Z,68.02
2018-08-09T07:27:39.635Z,69.14
2018-08-09T07:30:10.861Z,68.58
2018-08-09T07:32:40.222Z,67.64
2018-08-09T07:35:10.082Z,68.05
2018-08-09T07:37:39.855Z,67.62
2018-08-09T07:40:10.860Z,68.53
2018-08-09T07:42:40.026Z,66.88
2018-08-09T07:45:11.479Z,66.15
2018-08-09T07:47:40.433Z,66.08
2018-08-09T07:50:09.946Z,65.50
2018-08-09T07:52:39.322Z,65.02
2018-08-09T07:55:09.933Z,64.40
2018-08-09T07:57:39.332Z,64.47
2018-08-09T08:00:10.994Z,63.56
2018-08-09T08:02:39.978Z,63.70
2018-08-09T08:05:09.263Z,60.74
2018-08-09T08:07:38.671Z,59.40
2018-08-09T08:10:09.803Z,59.00
2018-08-09T08:12:38.871Z,56.33
2018-08-09T08:15:09.032Z,57.68
2018-08-09T08:17:38.996Z,55.60
2018-08-09T08:20:08.692Z,56.45
2018-08-09T08:22:37.719Z,55.34
2018-08-09T08:25:07.388Z,53.22
2018-08-09T08:27:36.234Z,53.68
2018-08-09T08:30:09.164Z,54.77
2018-08-09T08:35:24.331Z,46.98
2018-08-09T08:37:53.284Z,46.66
2018-08-09T08:40:22.207Z,47.45
2018-08-09T08:42:51.316Z,45.71
2018-08-09T08:45:20.342Z,44.64
2018-08-09T08:47:49.217Z,45.04
2018-08-09T08:50:18.745Z,42.80
2018-08-09T08:52:47.695Z,42.91
2018-08-09T08:55:16.630Z,42.30
2018-08-09T08:57:45.509Z,40.38
2018-08-09T09:00:14.439Z,41.53
2018-08-09T09:02:43.335Z,41.07
2018-08-09T09:05:13.810Z,41.02
2018-08-09T09:07:42.841Z,41.29
2018-08-09T09:10:13.913Z,42.04
2018-08-09T09:12:43.070Z,42.62
2018-08-09T09:15:14.347Z,42.71
2018-08-09T09:17:44.048Z,42.93
2018-08-09T09:20:16.186Z,42.36
2018-08-09T09:22:45.284Z,42.67
2018-08-09T09:25:14.460Z,43.42
2018-08-09T09:27:43.904Z,43.38
2018-08-09T09:30:14.370Z,43.19
2018-08-09T09:32:43.469Z,44.11
2018-08-09T09:35:12.317Z,44.46
2018-08-09T09:37:41.799Z,43.80
2018-08-09T09:40:11.616Z,42.56
2018-08-09T09:42:40.499Z,42.20
2018-08-09T09:45:10.322Z,41.15
2018-08-09T09:47:39.443Z,40.54
2018-08-09T09:50:10.417Z,40.34
2018-08-09T09:52:39.457Z,41.55
2018-08-09T09:55:08.360Z,41.65
2018-08-09T09:57:37.747Z,41.24
2018-08-09T10:00:12.402Z,41.92
2018-08-09T10:02:41.336Z,41.80
2018-08-09T10:05:10.384Z,40.21
2018-08-09T10:07:39.283Z,40.64
2018-08-09T10:10:08.310Z,41.29
2018-08-09T10:12:37.322Z,40.06
2018-08-09T10:15:06.429Z,41.22
2018-08-09T10:17:35.535Z,38.67
2018-08-09T10:20:04.558Z,38.49
2018-08-09T10:22:33.488Z,40.79
2018-08-09T10:25:02.436Z,39.81
2018-08-09T10:27:31.367Z,40.45
2018-08-09T10:30:00.699Z,40.77
2018-08-09T10:32:29.606Z,40.02
2018-08-09T10:34:58.587Z,40.35
2018-08-09T10:37:27.531Z,39.59
2018-08-09T10:39:56.440Z,41.54
2018-08-09T10:42:25.309Z,40.44
2018-08-09T10:44:54.258Z,39.59
2018-08-09T10:47:23.154Z,39.59
2018-08-09T10:49:52.010Z,38.65
2018-08-09T10:52:21.358Z,38.17
2018-08-09T10:54:50.274Z,38.95
2018-08-09T10:57:19.362Z,38.30
2018-08-09T10:59:48.951Z,37.94
2018-08-09T11:02:17.819Z,39.24
2018-08-09T11:04:46.757Z,38.58
2018-08-09T11:07:15.741Z,39.37
2018-08-09T11:09:44.633Z,38.43
2018-08-09T11:12:13.506Z,38.15
2018-08-09T11:14:42.872Z,35.04
2018-08-09T11:17:11.856Z,34.54
2018-08-09T11:19:40.722Z,34.47
2018-08-09T11:22:09.923Z,34.82
2018-08-09T11:24:38.932Z,34.76
2018-08-09T11:27:07.695Z,34.65
2018-08-09T11:29:37.014Z,34.53
2018-08-09T11:32:06.532Z,34.04
2018-08-09T11:34:35.499Z,34.44
2018-08-09T11:37:05.108Z,33.38
2018-08-09T11:39:34.084Z,35.49
2018-08-09T11:42:03.035Z,35.28
2018-08-09T11:44:32.400Z,36.09
2018-08-09T11:47:01.310Z,35.82
2018-08-09T11:49:30.359Z,35.46
2018-08-09T11:51:59.406Z,33.69
2018-08-09T11:54:28.323Z,33.04
2018-08-09T11:56:57.383Z,34.27
2018-08-09T11:59:27.239Z,34.26
2018-08-09T12:01:56.165Z,35.84
2018-08-09T12:04:25.188Z,36.54
2018-08-09T12:06:54.150Z,35.51
2018-08-09T12:09:23.032Z,33.88
2018-08-09T12:11:51.949Z,34.27
2018-08-09T12:14:21.288Z,35.97
2018-08-09T12:16:50.300Z,34.78
2018-08-09T12:19:19.211Z,34.98
2018-08-09T12:21:48.288Z,35.32
2018-08-09T12:24:17.194Z,35.03
2018-08-09T12:26:46.183Z,35.25
2018-08-09T12:29:15.645Z,35.00
2018-08-09T12:31:44.648Z,34.81
2018-08-09T12:34:13.572Z,36.36
2018-08-09T12:36:42.976Z,36.28
2018-08-09T12:39:13.181Z,35.65
2018-08-09T12:41:42.747Z,34.85
2018-08-09T12:44:11.908Z,34.60
2018-08-09T12:46:40.921Z,34.03
2018-08-09T12:49:10.246Z,34.99
2018-08-09T12:51:39.294Z,33.56
2018-08-09T12:54:08.335Z,33.48
2018-08-09T12:56:37.730Z,33.93
2018-08-09T12:59:06.695Z,34.74
2018-08-09T13:01:35.584Z,34.06
2018-08-09T13:04:05.018Z,34.06
2018-08-09T13:06:34.046Z,34.03
2018-08-09T13:09:02.985Z,33.32
2018-08-09T13:11:31.926Z,34.48
2018-08-09T13:14:00.804Z,35.00
2018-08-09T13:16:29.752Z,34.63
2018-08-09T13:18:58.724Z,34.27
2018-08-09T13:21:27.574Z,34.91
2018-08-09T13:23:56.554Z,34.20
2018-08-09T13:26:26.075Z,33.46
2018-08-09T13:28:55.084Z,33.54
2018-08-09T13:31:24.079Z,33.44
2018-08-09T13:33:53.216Z,33.77
2018-08-09T13:36:22.179Z,33.19
2018-08-09T13:38:51.170Z,33.53
2018-08-09T13:41:20.391Z,33.78
2018-08-09T13:43:49.528Z,33.28
2018-08-09T13:46:18.686Z,32.27
2018-08-09T13:48:48.096Z,32.50
2018-08-09T13:51:17.124Z,33.24
2018-08-09T13:53:46.025Z,34.01
2018-08-09T13:56:15.550Z,33.33
2018-08-09T13:58:44.712Z,31.96
2018-08-09T14:01:13.932Z,32.97
2018-08-09T14:03:42.933Z,33.85
2018-08-09T14:06:11.940Z,32.63
2018-08-09T14:08:40.888Z,33.24
2018-08-09T14:11:10.285Z,33.61
2018-08-09T14:13:39.401Z,32.65
2018-08-09T14:16:09.010Z,32.02
2018-08-09T14:18:38.166Z,32.39
2018-08-09T14:21:07.137Z,33.76
2018-08-09T14:23:35.996Z,32.67
2018-08-09T14:26:04.922Z,32.92
2018-08-09T14:28:33.880Z,32.05
2018-08-09T14:31:02.736Z,32.85
2018-08-09T14:33:31.694Z,32.81
2018-08-09T14:36:00.506Z,32.27
2018-08-09T14:38:29.378Z,31.81
2018-08-09T14:40:58.253Z,32.08
2018-08-09T14:43:27.090Z,33.07
2018-08-09T14:45:55.960Z,31.81
2018-08-09T14:48:25.266Z,31.50
2018-08-09T14:50:54.193Z,33.02
2018-08-09T14:53:23.023Z,32.72
2018-08-09T14:55:51.924Z,33.28
2018-08-09T14:58:20.832Z,33.71
2018-08-09T15:00:49.670Z,33.60
2018-08-09T15:03:18.541Z,32.80
2018-08-09T15:05:47.401Z,32.27
2018-08-09T15:08:16.239Z,33.54
2018-08-09T15:10:45.158Z,32.97
2018-08-09T15:13:14.012Z,32.76
2018-08-09T15:15:42.918Z,33.30
2018-08-09T15:18:11.903Z,31.38
2018-08-09T15:20:40.833Z,32.85
2018-08-09T15:23:09.750Z,32.43
2018-08-09T15:25:38.669Z,32.85
2018-08-09T15:28:07.926Z,32.90
2018-08-09T15:30:36.846Z,33.13
2018-08-09T15:33:05.960Z,32.95
2018-08-09T15:35:34.844Z,33.50
2018-08-09T15:38:03.741Z,31.99
2018-08-09T15:40:32.722Z,33.20
2018-08-09T15:43:01.612Z,33.31
2018-08-09T15:45:30.531Z,33.60
2018-08-09T15:48:00.027Z,32.48
2018-08-09T15:50:29.006Z,33.31
2018-08-09T15:52:57.986Z,34.02
2018-08-09T15:55:26.965Z,33.33
2018-08-09T15:57:56.144Z,33.69
2018-08-09T16:00:25.438Z,33.84
2018-08-09T16:02:54.651Z,33.81
2018-08-09T16:05:23.827Z,34.28
2018-08-09T16:07:52.931Z,33.43
2018-08-09T16:10:22.045Z,34.81
2018-08-09T16:12:51.036Z,34.25
2018-08-09T16:15:20.558Z,34.81
2018-08-09T16:17:50.222Z,34.28
2018-08-09T16:20:19.409Z,34.68
2018-08-09T16:22:48.680Z,34.63
2018-08-09T16:25:19.516Z,34.28
2018-08-09T16:27:49.309Z,33.35
2018-08-09T16:30:20.432Z,33.71
2018-08-09T16:32:49.721Z,34.64
2018-08-09T16:35:19.061Z,33.78
2018-08-09T16:37:48.495Z,34.15
2018-08-09T16:40:19.411Z,33.86
2018-08-09T16:42:49.218Z,34.70
2018-08-09T16:45:19.388Z,35.30
2018-08-09T16:47:49.095Z,34.54
2018-08-09T16:50:20.476Z,35.65
2018-08-09T16:52:50.973Z,34.61
2018-08-09T16:55:27.417Z,35.73
2018-08-09T16:57:56.548Z,35.83
2018-08-09T17:00:26.522Z,36.47
2018-08-09T17:02:56.097Z,35.81
2018-08-09T17:05:27.857Z,36.65
2018-08-09T17:07:57.391Z,36.59
2018-08-09T17:10:27.144Z,37.15
2018-08-09T17:12:56.256Z,37.40
2018-08-09T17:15:27.574Z,37.83
2018-08-09T17:17:57.341Z,37.60
2018-08-09T17:20:33.050Z,38.26
2018-08-09T17:23:03.425Z,38.36
2018-08-09T17:25:32.651Z,39.99
2018-08-09T17:28:02.128Z,39.27
2018-08-09T17:30:31.247Z,40.51
2018-08-09T17:33:00.440Z,39.89
2018-08-09T17:35:29.693Z,40.43
2018-08-09T17:37:58.715Z,41.74
2018-08-09T17:40:31.338Z,41.43
2018-08-09T17:43:00.948Z,41.77
2018-08-09T17:45:33.816Z,42.45
2018-08-09T17:48:03.699Z,43.35
2018-08-09T17:50:32.829Z,42.62
2018-08-09T17:53:03.791Z,43.10
2018-08-09T17:55:33.368Z,43.15
2018-08-09T17:58:02.487Z,43.32
2018-08-09T18:00:33.558Z,44.54
2018-08-09T18:03:02.632Z,44.36
2018-08-09T18:05:31.528Z,45.03
2018-08-09T18:08:01.178Z,45.65
2018-08-09T18:10:32.540Z,45.78
2018-08-09T18:13:01.806Z,45.68
2018-08-09T18:15:31.594Z,45.69
2018-08-09T18:18:01.582Z,46.43
2018-08-09T18:20:32.335Z,47.51
2018-08-09T18:23:02.000Z,47.02
2018-08-09T18:25:31.052Z,47.69
2018-08-09T18:28:00.519Z,47.09
2018-08-09T18:30:29.684Z,47.53
2018-08-09T18:32:58.917Z,46.87
2018-08-09T18:35:28.432Z,47.68
2018-08-09T18:37:57.484Z,47.33
2018-08-09T18:40:28.218Z,48.01
2018-08-09T18:42:57.368Z,48.38
2018-08-09T18:45:34.211Z,48.56
2018-08-09T18:48:03.179Z,49.24
2018-08-09T18:50:32.460Z,49.73
2018-08-09T18:53:01.720Z,50.81
2018-08-09T18:55:30.779Z,50.95
2018-08-09T18:57:59.808Z,50.31
2018-08-09T19:00:30.623Z,50.25
2018-08-09T19:02:59.847Z,50.81
2018-08-09T19:05:29.133Z,50.49
2018-08-09T19:07:58.374Z,50.74
2018-08-09T19:10:29.176Z,50.79
2018-08-09T19:12:58.351Z,51.50
2018-08-09T19:15:27.515Z,50.82
2018-08-09T19:17:56.746Z,51.54
2018-08-09T19:20:34.436Z,51.69
2018-08-09T19:23:03.737Z,51.39
2018-08-09T19:25:32.778Z,50.95
2018-08-09T19:28:02.156Z,51.62
2018-08-09T19:30:32.342Z,51.80
2018-08-09T19:33:01.480Z,52.38
2018-08-09T19:35:30.531Z,51.53
2018-08-09T19:37:59.672Z,51.85
2018-08-09T19:40:33.548Z,52.04
2018-08-09T19:43:02.705Z,51.71
2018-08-09T19:45:31.874Z,51.87
2018-08-09T19:48:04.670Z,52.57
2018-08-09T19:50:37.013Z,52.78
2018-08-09T19:53:06.332Z,53.52
2018-08-09T19:55:35.374Z,53.21
2018-08-09T19:58:04.724Z,53.57
2018-08-09T20:00:37.518Z,54.90
2018-08-09T20:03:06.440Z,54.48
2018-08-09T20:05:35.657Z,54.46
2018-08-09T20:08:04.864Z,54.87
2018-08-09T20:10:34.064Z,55.18
2018-08-09T20:13:06.076Z,55.08
2018-08-09T20:15:39.159Z,55.70
2018-08-09T20:18:09.457Z,55.51
2018-08-09T20:20:38.559Z,56.65
2018-08-09T20:23:07.752Z,57.35
2018-08-09T20:25:36.838Z,57.21
2018-08-09T20:28:06.269Z,58.36
2018-08-09T20:30:35.419Z,57.87
2018-08-09T20:33:07.303Z,59.90
2018-08-09T20:35:36.533Z,59.49
2018-08-09T20:38:07.328Z,59.13
2018-08-09T20:40:37.970Z,59.18
2018-08-09T20:43:07.084Z,60.03
2018-08-09T20:45:39.735Z,60.29
2018-08-09T20:48:08.956Z,60.31
2018-08-09T20:50:38.967Z,60.24
2018-08-09T20:53:08.177Z,60.80
2018-08-09T20:55:37.352Z,61.69
2018-08-09T20:58:06.680Z,62.33
2018-08-09T21:00:36.975Z,62.80
2018-08-09T21:03:06.115Z,63.26
2018-08-09T21:05:37.708Z,63.52
2018-08-09T21:08:07.861Z,63.39
2018-08-09T21:10:37.441Z,63.51
2018-08-09T21:13:07.035Z,64.27
2018-08-09T21:15:36.163Z,65.31
2018-08-09T21:18:05.259Z,66.03
2018-08-09T21:20:34.642Z,66.83
2018-08-09T21:23:04.958Z,66.84
2018-08-09T21:25:34.379Z,68.20
2018-08-09T21:28:08.281Z,67.95
2018-08-09T21:30:47.659Z,68.36
2018-08-09T21:33:17.321Z,70.03
2018-08-09T21:35:46.618Z,69.61
2018-08-09T21:38:15.912Z,69.59
2018-08-09T21:40:52.081Z,70.53
2018-08-09T21:43:21.379Z,70.12
2018-08-09T21:45:50.585Z,69.93
2018-08-09T21:48:30.197Z,69.63
2018-08-09T21:50:59.403Z,69.46
2018-08-09T21:53:42.479Z,70.20
2018-08-09T21:56:11.535Z,70.17
2018-08-09T21:58:41.981Z,70.42
2018-08-09T22:01:13.471Z,70.35
2018-08-09T22:03:42.646Z,70.95
2018-08-09T22:06:16.639Z,71.30
2018-08-09T22:08:51.062Z,71.70
2018-08-09T22:11:25.304Z,71.71
2018-08-09T22:14:01.029Z,71.63
2018-08-09T22:16:35.656Z,73.25
2018-08-09T22:19:11.022Z,73.48
2018-08-09T22:21:45.078Z,73.27
2018-08-09T22:24:17.823Z,73.32
2018-08-09T22:26:49.268Z,74.42
2018-08-09T22:29:20.884Z,74.68
2018-08-09T22:31:50.267Z,74.62
2018-08-09T22:34:24.938Z,75.33
2018-08-09T22:36:54.109Z,75.40
2018-08-09T22:39:23.638Z,75.30
2018-08-09T22:41:52.717Z,75.51
2018-08-09T22:44:21.798Z,75.83
2018-08-09T22:46:50.803Z,75.91
2018-08-09T22:49:20.683Z,76.74
2018-08-09T22:51:49.678Z,76.76
2018-08-09T22:54:18.774Z,77.40
2018-08-09T22:56:48.380Z,76.47
2018-08-09T22:59:17.400Z,76.54
2018-08-09T23:01:46.540Z,77.86
2018-08-09T23:04:15.824Z,76.88
2018-08-09T23:06:48.561Z,78.29
2018-08-09T23:09:17.724Z,78.08
2018-08-09T23:11:47.604Z,77.90
2018-08-09T23:14:16.878Z,78.32
2018-08-09T23:16:46.193Z,79.09
2018-08-09T23:19:15.513Z,78.77
2018-08-09T23:21:44.585Z,78.83
2018-08-09T23:24:15.116Z,78.76
2018-08-09T23:26:47.642Z,80.61
2018-08-09T23:29:16.935Z,79.92
2018-08-09T23:31:46.064Z,80.66
2018-08-09T23:34:15.080Z,81.54
2018-08-09T23:36:47.824Z,82.15
2018-08-09T23:39:17.026Z,82.09
2018-08-09T23:41:46.060Z,81.27
2018-08-09T23:44:15.265Z,81.43
2018-08-09T23:46:44.205Z,81.65
2018-08-09T23:49:13.508Z,80.48
2018-08-09T23:51:42.937Z,80.50
2018-08-09T23:54:12.935Z,82.43
2018-08-09T23:56:43.242Z,82.04
2018-08-09T23:59:12.438Z,82.19
